Nearby METAR Reports

 

EGSS - Stansted Airport, United Kingdom
Distance from station: NW 15mi, 24km
Updated: 17/11/2018 12:50
Clear
Clear
 Wind from E
Wind: E 12 mph , 19 km/h
Temperature: 11°C
Dew Point: 7°C
Humidity: 77%
Barometer: 1027 hPa
Clouds: Clear
Visibility: 6 miles , 10 km
2018/11/17 12:50 EGSS 171250Z AUTO 09010KT 040V120 9999 NCD 11/07 Q1027
EGMC - Southend-On-Sea, United Kingdom
Distance from station: SE 15mi, 25km
Updated: 17/11/2018 12:50
Few Clouds
Few Clouds
 Wind from E
Wind: E 14 mph , 22 km/h
Temperature: 10°C
Wind Chill: 7°C
Dew Point: 7°C
Humidity: 82%
Barometer: 1027 hPa
Clouds: Few Clouds
Visibility: 6 miles , 10 km
Cloud details: Few Clouds 457 m
2018/11/17 12:50 EGMC 171250Z 08012KT 9999 FEW015 10/07 Q1027
 
EGLC - London City Airp, United Kingdom
Distance from station: SW 24mi, 39km
Updated: 17/11/2018 12:50
Clear
Clear
 Wind from E
Wind: E 18 mph , 30 km/h
Temperature: 12°C
Dew Point: 4°C
Humidity: 58%
Barometer: 1027 hPa
Clouds: Clear
Visibility: 6 miles , 10 km
2018/11/17 12:50 EGLC 171250Z AUTO 08016KT 9999 NCD 12/04 Q1027
EGUW - Wattisham Raf, United Kingdom
Distance from station: NE 34mi, 54km
Updated: 17/11/2018 11:50
Clear
Clear
 Wind from E
Wind: E 14 mph , 22 km/h
Temperature: 10°C
Wind Chill: 7°C
Dew Point: 6°C
Humidity: 76%
Barometer: 1028 hPa
Clouds: Clear
Visibility: 6 miles , 10 km
2018/11/17 11:50 EGUW 171150Z AUTO 10012KT 9999 NCD 10/06 Q1028
 
EGGW - Luton Airport, United Kingdom
Distance from station: WNW 37mi, 59km
Updated: 17/11/2018 12:50
Clear
Clear
 Wind from E
Wind: E 10 mph , 17 km/h
Temperature: 10°C
Wind Chill: 8°C
Dew Point: 8°C
Humidity: 88%
Barometer: 1027 hPa
Clouds: Clear
Visibility: 6 miles , 9 km
2018/11/17 12:50 EGGW 171250Z AUTO 08009KT 9000 NCD 10/08 Q1027
EGWU - Northolt Raf, United Kingdom
Distance from station: WSW 40mi, 64km
Updated: 17/11/2018 12:50
Clear
Clear
 Wind from E
Wind: E 12 mph , 19 km/h
Temperature: 11°C
Dew Point: 6°C
Humidity: 72%
Barometer: 1026 hPa
Summary: Clear
Visibility: greater than 7 miles , 10 km
2018/11/17 12:50 EGWU 171250Z 08010KT CAVOK 11/06 Q1026 BLU NOSIG